VIE weather

Vienna International Airport
Vienna, Vienna, Austria

Public forecast

Using degrees Celsius for public forecast. Weather courtesy of forecast.io.

METAR (pilot weather report)

Retrieved 2018/04/26 20:20 UTC (14 minutes ago):

LOWW 262020Z 28011KT CAVOK 11/06 Q1018 NOSIG

TAF (pilot weather forecast)

Retrieved 2018/04/26 21:21 UTC (0 seconds ago):

TAF LOWW 262015Z 2621/2803 28010KT CAVOK TX18/2714Z TN07/2703Z BECMG 2704/2707 16004KT BECMG 2709/2711 15013KT TEMPO 2713/2719 15018KT